sensor_id;sensor_type;location;lat;lon;timestamp;P1;durP1;ratioP1;P2;durP2;ratioP2
10333;SDS011;5212;47.892;16.406;2022-07-29T18:03:34;7.00;;;6.40;;
10333;SDS011;5212;47.892;16.406;2022-07-29T18:06:01;6.80;;;5.83;;
10333;SDS011;5212;47.892;16.406;2022-07-29T18:08:28;6.40;;;5.80;;
10333;SDS011;5212;47.892;16.406;2022-07-29T18:10:55;7.23;;;6.57;;
10333;SDS011;5212;47.892;16.406;2022-07-29T18:13:23;6.37;;;5.87;;
10333;SDS011;5212;47.892;16.406;2022-07-29T18:15:51;6.60;;;6.00;;
10333;SDS011;5212;47.892;16.406;2022-07-29T18:18:19;6.73;;;5.63;;
10333;SDS011;5212;47.892;16.406;2022-07-29T18:20:48;6.60;;;6.00;;
10333;SDS011;5212;47.892;16.406;2022-07-29T18:23:15;7.33;;;6.63;;
10333;SDS011;5212;47.892;16.406;2022-07-29T18:25:42;6.70;;;6.10;;
10333;SDS011;5212;47.892;16.406;2022-07-29T18:28:09;6.43;;;5.93;;
10333;SDS011;5212;47.892;16.406;2022-07-29T18:30:36;8.13;;;7.23;;
10333;SDS011;5212;47.892;16.406;2022-07-29T18:33:04;6.77;;;6.17;;
10333;SDS011;5212;47.892;16.406;2022-07-29T18:35:32;7.13;;;6.50;;
10333;SDS011;5212;47.892;16.406;2022-07-29T18:38:01;6.37;;;5.77;;
10333;SDS011;5212;47.892;16.406;2022-07-29T18:40:30;6.20;;;5.60;;
10333;SDS011;5212;47.892;16.406;2022-07-29T18:43:22;7.27;;;6.60;;
10333;SDS011;5212;47.892;16.406;2022-07-29T18:45:49;7.10;;;6.50;;
10333;SDS011;5212;47.892;16.406;2022-07-29T18:48:17;6.73;;;5.60;;
10333;SDS011;5212;47.892;16.406;2022-07-29T18:50:45;6.90;;;6.30;;
10333;SDS011;5212;47.892;16.406;2022-07-29T18:53:11;7.90;;;7.20;;
10333;SDS011;5212;47.892;16.406;2022-07-29T18:55:39;8.37;;;7.57;;
10333;SDS011;5212;47.892;16.406;2022-07-29T18:58:05;8.67;;;7.87;;
10333;SDS011;5212;47.892;16.406;2022-07-29T19:00:34;9.47;;;7.70;;
10333;SDS011;5212;47.892;16.406;2022-07-29T19:03:01;9.40;;;8.47;;
10333;SDS011;5212;47.892;16.406;2022-07-29T19:05:28;9.10;;;8.30;;
10333;SDS011;5212;47.892;16.406;2022-07-29T19:07:55;8.87;;;8.07;;
10333;SDS011;5212;47.892;16.406;2022-07-29T19:10:22;8.33;;;7.50;;
10333;SDS011;5212;47.892;16.406;2022-07-29T19:12:49;8.10;;;7.30;;
10333;SDS011;5212;47.892;16.406;2022-07-29T19:15:16;7.93;;;7.13;;
10333;SDS011;5212;47.892;16.406;2022-07-29T19:17:44;6.87;;;6.27;;
10333;SDS011;5212;47.892;16.406;2022-07-29T19:20:12;8.93;;;8.10;;
10333;SDS011;5212;47.892;16.406;2022-07-29T19:22:39;8.00;;;7.20;;
10333;SDS011;5212;47.892;16.406;2022-07-29T19:25:07;7.47;;;6.83;;
10333;SDS011;5212;47.892;16.406;2022-07-29T19:27:34;7.50;;;6.80;;
10333;SDS011;5212;47.892;16.406;2022-07-29T19:30:01;7.17;;;6.47;;
10333;SDS011;5212;47.892;16.406;2022-07-29T19:32:30;7.07;;;6.47;;
10333;SDS011;5212;47.892;16.406;2022-07-29T19:34:59;7.20;;;6.50;;
10333;SDS011;5212;47.892;16.406;2022-07-29T19:37:43;6.30;;;5.80;;
10333;SDS011;5212;47.892;16.406;2022-07-29T19:40:10;6.30;;;5.70;;
10333;SDS011;5212;47.892;16.406;2022-07-29T19:42:37;6.17;;;5.67;;
10333;SDS011;5212;47.892;16.406;2022-07-29T19:45:05;6.93;;;6.23;;
10333;SDS011;5212;47.892;16.406;2022-07-29T19:47:32;7.23;;;6.57;;
10333;SDS011;5212;47.892;16.406;2022-07-29T19:50:01;7.50;;;6.90;;
10333;SDS011;5212;47.892;16.406;2022-07-29T19:52:28;7.00;;;6.40;;
10333;SDS011;5212;47.892;16.406;2022-07-29T19:54:56;5.77;;;5.27;;
10333;SDS011;5212;47.892;16.406;2022-07-29T19:57:22;5.47;;;4.97;;
10333;SDS011;5212;47.892;16.406;2022-07-29T19:59:49;6.30;;;5.67;;
10333;SDS011;5212;47.892;16.406;2022-07-29T20:02:36;6.30;;;5.70;;
10333;SDS011;5212;47.892;16.406;2022-07-29T20:12:54;7.13;;;6.53;;
10333;SDS011;5212;47.892;16.406;2022-07-29T20:16:22;7.80;;;7.10;;
10333;SDS011;5212;47.892;16.406;2022-07-29T20:18:49;6.60;;;6.00;;
10333;SDS011;5212;47.892;16.406;2022-07-29T20:21:16;7.07;;;6.40;;
10333;SDS011;5212;47.892;16.406;2022-07-29T20:23:43;7.47;;;6.77;;
10333;SDS011;5212;47.892;16.406;2022-07-29T20:26:11;7.00;;;6.40;;
10333;SDS011;5212;47.892;16.406;2022-07-29T20:28:38;7.03;;;6.33;;
10333;SDS011;5212;47.892;16.406;2022-07-29T20:31:05;7.67;;;7.00;;
10333;SDS011;5212;47.892;16.406;2022-07-29T20:33:32;7.23;;;6.63;;
10333;SDS011;5212;47.892;16.406;2022-07-29T20:35:59;6.80;;;6.20;;
10333;SDS011;5212;47.892;16.406;2022-07-29T20:38:26;6.93;;;6.33;;
10333;SDS011;5212;47.892;16.406;2022-07-29T20:40:54;7.20;;;6.60;;
10333;SDS011;5212;47.892;16.406;2022-07-29T20:43:24;7.80;;;7.10;;
10333;SDS011;5212;47.892;16.406;2022-07-29T20:45:51;7.70;;;7.00;;
10333;SDS011;5212;47.892;16.406;2022-07-29T20:48:18;7.40;;;6.70;;
10333;SDS011;5212;47.892;16.406;2022-07-29T20:50:45;7.70;;;7.00;;
10333;SDS011;5212;47.892;16.406;2022-07-29T20:53:13;7.50;;;6.80;;
10333;SDS011;5212;47.892;16.406;2022-07-29T20:55:40;8.10;;;7.40;;
10333;SDS011;5212;47.892;16.406;2022-07-29T20:58:07;8.50;;;7.80;;
10333;SDS011;5212;47.892;16.406;2022-07-29T21:00:36;7.57;;;6.87;;
10333;SDS011;5212;47.892;16.406;2022-07-29T21:03:03;8.47;;;7.67;;
10333;SDS011;5212;47.892;16.406;2022-07-29T21:05:31;9.57;;;8.67;;
10333;SDS011;5212;47.892;16.406;2022-07-29T21:07:58;8.97;;;8.13;;
10333;SDS011;5212;47.892;16.406;2022-07-29T21:10:25;8.17;;;7.40;;
10333;SDS011;5212;47.892;16.406;2022-07-29T21:12:53;8.53;;;7.73;;
10333;SDS011;5212;47.892;16.406;2022-07-29T21:15:20;7.67;;;6.97;;
10333;SDS011;5212;47.892;16.406;2022-07-29T21:17:49;7.30;;;6.67;;
10333;SDS011;5212;47.892;16.406;2022-07-29T21:20:24;6.90;;;6.30;;
10333;SDS011;5212;47.892;16.406;2022-07-29T21:22:51;7.00;;;6.40;;
10333;SDS011;5212;47.892;16.406;2022-07-29T21:25:19;7.00;;;6.40;;
10333;SDS011;5212;47.892;16.406;2022-07-29T21:27:47;7.93;;;7.23;;
10333;SDS011;5212;47.892;16.406;2022-07-29T21:30:31;8.90;;;8.10;;
10333;SDS011;5212;47.892;16.406;2022-07-29T21:33:00;8.83;;;8.00;;
10333;SDS011;5212;47.892;16.406;2022-07-29T21:35:26;9.30;;;8.50;;
10333;SDS011;5212;47.892;16.406;2022-07-29T21:37:53;9.03;;;8.23;;
10333;SDS011;5212;47.892;16.406;2022-07-29T21:40:20;7.67;;;6.97;;
10333;SDS011;5212;47.892;16.406;2022-07-29T21:42:47;7.70;;;7.00;;
10333;SDS011;5212;47.892;16.406;2022-07-29T21:45:14;9.93;;;9.10;;
10333;SDS011;5212;47.892;16.406;2022-07-29T21:47:41;9.60;;;8.80;;
10333;SDS011;5212;47.892;16.406;2022-07-29T21:50:12;9.97;;;8.97;;
10333;SDS011;5212;47.892;16.406;2022-07-29T21:52:39;12.50;;;11.40;;
10333;SDS011;5212;47.892;16.406;2022-07-29T21:55:06;9.07;;;8.17;;
10333;SDS011;5212;47.892;16.406;2022-07-29T21:57:34;9.10;;;8.30;;
10333;SDS011;5212;47.892;16.406;2022-07-29T22:00:01;10.73;;;9.73;;
10333;SDS011;5212;47.892;16.406;2022-07-29T22:02:28;8.90;;;8.10;;
10333;SDS011;5212;47.892;16.406;2022-07-29T22:04:55;8.27;;;7.57;;
10333;SDS011;5212;47.892;16.406;2022-07-29T22:07:24;9.37;;;8.50;;
10333;SDS011;5212;47.892;16.406;2022-07-29T22:09:51;9.10;;;8.30;;
10333;SDS011;5212;47.892;16.406;2022-07-29T22:12:18;8.63;;;7.93;;
10333;SDS011;5212;47.892;16.406;2022-07-29T22:14:45;8.20;;;7.40;;
10333;SDS011;5212;47.892;16.406;2022-07-29T22:17:11;7.40;;;6.80;;
10333;SDS011;5212;47.892;16.406;2022-07-29T22:19:38;8.87;;;8.07;;
10333;SDS011;5212;47.892;16.406;2022-07-29T22:22:06;7.97;;;7.27;;
10333;SDS011;5212;47.892;16.406;2022-07-29T22:24:35;8.03;;;7.33;;
10333;SDS011;5212;47.892;16.406;2022-07-29T22:27:02;9.43;;;8.53;;
10333;SDS011;5212;47.892;16.406;2022-07-29T22:29:29;9.07;;;8.27;;
10333;SDS011;5212;47.892;16.406;2022-07-29T22:31:56;9.97;;;9.00;;
10333;SDS011;5212;47.892;16.406;2022-07-29T22:34:23;9.60;;;8.70;;
10333;SDS011;5212;47.892;16.406;2022-07-29T22:36:49;9.10;;;8.30;;
10333;SDS011;5212;47.892;16.406;2022-07-29T22:39:16;9.70;;;8.70;;
10333;SDS011;5212;47.892;16.406;2022-07-29T22:41:44;7.90;;;7.20;;
10333;SDS011;5212;47.892;16.406;2022-07-29T22:44:11;7.07;;;6.40;;
10333;SDS011;5212;47.892;16.406;2022-07-29T22:46:38;9.03;;;8.13;;
10333;SDS011;5212;47.892;16.406;2022-07-29T22:49:05;7.93;;;7.23;;
10333;SDS011;5212;47.892;16.406;2022-07-29T22:51:33;8.17;;;7.37;;
10333;SDS011;5212;47.892;16.406;2022-07-29T22:54:00;7.97;;;7.27;;
10333;SDS011;5212;47.892;16.406;2022-07-29T22:56:27;9.50;;;8.60;;
10333;SDS011;5212;47.892;16.406;2022-07-29T22:58:55;8.87;;;8.00;;
10333;SDS011;5212;47.892;16.406;2022-07-29T23:01:22;8.70;;;7.80;;
10333;SDS011;5212;47.892;16.406;2022-07-29T23:03:49;12.70;;;11.43;;
10333;SDS011;5212;47.892;16.406;2022-07-29T23:06:16;10.80;;;9.80;;
10333;SDS011;5212;47.892;16.406;2022-07-29T23:08:43;10.73;;;9.63;;
10333;SDS011;5212;47.892;16.406;2022-07-29T23:11:10;10.67;;;9.67;;
10333;SDS011;5212;47.892;16.406;2022-07-29T23:13:37;9.77;;;8.87;;
10333;SDS011;5212;47.892;16.406;2022-07-29T23:16:06;8.90;;;8.00;;
10333;SDS011;5212;47.892;16.406;2022-07-29T23:18:33;9.17;;;8.27;;
10333;SDS011;5212;47.892;16.406;2022-07-29T23:21:00;9.43;;;8.63;;
10333;SDS011;5212;47.892;16.406;2022-07-29T23:23:26;8.53;;;7.80;;
10333;SDS011;5212;47.892;16.406;2022-07-29T23:25:53;12.33;;;11.13;;
10333;SDS011;5212;47.892;16.406;2022-07-29T23:28:20;10.83;;;9.73;;
10333;SDS011;5212;47.892;16.406;2022-07-29T23:30:47;9.80;;;8.90;;
10333;SDS011;5212;47.892;16.406;2022-07-29T23:33:16;9.10;;;8.30;;
10333;SDS011;5212;47.892;16.406;2022-07-29T23:35:43;11.47;;;10.47;;
10333;SDS011;5212;47.892;16.406;2022-07-29T23:38:10;10.40;;;9.47;;
10333;SDS011;5212;47.892;16.406;2022-07-29T23:40:37;11.17;;;9.93;;
10333;SDS011;5212;47.892;16.406;2022-07-29T23:43:05;12.80;;;11.27;;
10333;SDS011;5212;47.892;16.406;2022-07-29T23:45:32;12.27;;;11.20;;
10333;SDS011;5212;47.892;16.406;2022-07-29T23:47:58;11.63;;;10.53;;
10333;SDS011;5212;47.892;16.406;2022-07-29T23:50:27;11.73;;;10.60;;
10333;SDS011;5212;47.892;16.406;2022-07-29T23:52:55;10.40;;;9.40;;
10333;SDS011;5212;47.892;16.406;2022-07-29T23:55:22;11.23;;;10.23;;
10333;SDS011;5212;47.892;16.406;2022-07-29T23:57:49;10.80;;;9.80;;
